Terminal Aerodrome Forecast
Issued by NWS Grand Forks, ND

Home | Current Version | Previous Version | Text Only | Print | Product List | Glossary Off
Versions: 1 2 3 4 5 6 7 8 9 10 11 12 13 14 15 16 17 18 19

000
FTUS43 KFGF 211619 AAB
TAFFAR
TAF AMD
KFAR 211619Z 2116/2212 33020G30KT P6SM SCT018
      TEMPO 2116/2117 BKN018
     FM211900 33017KT P6SM FEW050
     FM212200 32014KT P6SM FEW150
     FM220000 32009KT P6SM FEW250
     FM220500 VRB06KT P6SM FEW250=

USA.gov is the U.S. government's official web portal to all federal, state and local government web resources and services.